Time;durP1;ratioP1;P1;durP2;ratioP2;P2;SDS_P1;SDS_P2;PMS_P1;PMS_P2;Temp;Humidity;BMP_temperature;BMP_pressure;BME280_temperature;BME280_humidity;BME280_pressure;Samples;Min_cycle;Max_cycle;Signal;HPM_P1;HPM_P2
2021/01/29 00:01:44;;;;;;;1.90;1.73;;;0.70;99.90;;;;;;5093769;28;20248;-74
2021/01/29 00:04:10;;;;;;;3.72;1.70;;;0.80;99.90;;;;;;5093399;28;20604;-74
2021/01/29 00:06:36;;;;;;;2.53;2.10;;;0.90;99.90;;;;;;5093751;28;20359;-74
2021/01/29 00:09:03;;;;;;;2.38;1.98;;;1.00;99.90;;;;;;5093428;28;20220;-73
2021/01/29 00:11:29;;;;;;;1.60;1.50;;;1.00;99.90;;;;;;5093776;28;20267;-75
2021/01/29 00:13:59;;;;;;;2.63;1.75;;;1.10;99.90;;;;;;5093577;28;20330;-74
2021/01/29 00:16:25;;;;;;;1.50;1.35;;;1.20;99.90;;;;;;5093391;28;20237;-74
2021/01/29 00:18:51;;;;;;;4.13;2.03;;;1.20;99.90;;;;;;5093264;28;20547;-74
2021/01/29 00:21:17;;;;;;;1.60;1.50;;;1.20;99.90;;;;;;5093292;28;20517;-74
2021/01/29 00:23:43;;;;;;;4.93;1.73;;;1.20;99.90;;;;;;5093151;28;20187;-74
2021/01/29 00:26:09;;;;;;;3.67;1.80;;;1.20;99.90;;;;;;5092998;28;20185;-75
2021/01/29 00:28:35;;;;;;;2.60;1.70;;;1.20;99.90;;;;;;5092985;28;20242;-74
2021/01/29 00:31:02;;;;;;;3.27;1.53;;;1.10;99.90;;;;;;5093198;28;20184;-74
2021/01/29 00:33:28;;;;;;;2.58;1.85;;;1.10;99.90;;;;;;5092803;28;20573;-74
2021/01/29 00:35:55;;;;;;;4.93;2.30;;;1.10;99.90;;;;;;5087274;28;20698;-74
2021/01/29 00:38:22;;;;;;;1.95;1.75;;;1.10;99.90;;;;;;5083756;28;20185;-75
2021/01/29 00:40:48;;;;;;;2.30;2.10;;;1.10;99.90;;;;;;5092980;28;20220;-74
2021/01/29 00:43:14;;;;;;;2.63;2.33;;;1.10;99.90;;;;;;5093042;28;20726;-74
2021/01/29 00:45:40;;;;;;;3.42;2.20;;;1.20;99.90;;;;;;5093003;28;20723;-74
2021/01/29 00:48:09;;;;;;;3.53;2.10;;;1.10;99.90;;;;;;5092959;28;20195;-74
2021/01/29 00:50:37;;;;;;;4.88;2.88;;;1.20;99.90;;;;;;5092817;28;20714;-74
2021/01/29 00:53:03;;;;;;;2.50;2.30;;;1.30;99.90;;;;;;5092531;28;20176;-74
2021/01/29 00:55:29;;;;;;;2.80;2.22;;;1.30;99.90;;;;;;5093063;28;20210;-75
2021/01/29 00:57:56;;;;;;;5.17;2.53;;;1.40;99.90;;;;;;5076555;28;20548;-74
2021/01/29 01:00:22;;;;;;;3.85;2.25;;;1.40;99.90;;;;;;5088566;28;20516;-74
2021/01/29 01:02:48;;;;;;;4.80;2.72;;;1.50;99.90;;;;;;5089630;28;20192;-74
2021/01/29 01:05:17;;;;;;;4.00;3.53;;;1.50;99.90;;;;;;5090446;28;20184;-74
2021/01/29 01:07:43;;;;;;;5.72;2.45;;;1.50;99.90;;;;;;5088618;28;20696;-75
2021/01/29 01:10:10;;;;;;;2.60;2.35;;;1.60;99.90;;;;;;5089540;28;20284;-74
2021/01/29 01:12:36;;;;;;;7.70;2.42;;;1.60;99.90;;;;;;5087492;28;20191;-74
2021/01/29 01:15:05;;;;;;;3.90;2.85;;;1.60;99.90;;;;;;5089931;28;20275;-74
2021/01/29 01:17:31;;;;;;;3.38;2.40;;;1.60;99.90;;;;;;5087526;28;20181;-74
2021/01/29 01:19:57;;;;;;;3.57;2.73;;;1.70;99.90;;;;;;5092847;28;20227;-74
2021/01/29 01:22:24;;;;;;;2.70;2.50;;;1.60;99.90;;;;;;5087800;28;20499;-75
2021/01/29 01:24:50;;;;;;;8.65;2.70;;;1.60;99.90;;;;;;5080472;28;20541;-74
2021/01/29 01:27:19;;;;;;;2.17;2.00;;;1.70;99.90;;;;;;5088399;28;20208;-74
2021/01/29 01:29:45;;;;;;;3.05;1.88;;;1.70;99.90;;;;;;5092578;28;20276;-74
2021/01/29 01:32:11;;;;;;;3.28;2.30;;;1.70;99.90;;;;;;5084562;28;20213;-74
2021/01/29 01:34:37;;;;;;;2.95;2.00;;;1.70;99.90;;;;;;5090891;28;20231;-74
2021/01/29 01:37:04;;;;;;;2.17;1.97;;;1.70;99.90;;;;;;5085331;28;20185;-74
2021/01/29 01:39:31;;;;;;;4.28;2.10;;;1.70;99.90;;;;;;5083205;28;20446;-74
2021/01/29 01:41:58;;;;;;;3.25;2.38;;;1.70;99.90;;;;;;5088628;28;20220;-74
2021/01/29 01:44:32;;;;;;;2.28;1.65;;;1.70;99.90;;;;;;5091050;28;20224;-74
2021/01/29 01:47:00;;;;;;;1.58;1.48;;;1.70;99.90;;;;;;5088336;28;20215;-74
2021/01/29 01:49:27;;;;;;;3.75;1.80;;;1.60;99.90;;;;;;5091107;28;20275;-74
2021/01/29 01:51:59;;;;;;;2.95;1.83;;;1.70;99.90;;;;;;5088574;28;20195;-74
2021/01/29 01:54:38;;;;;;;1.60;1.42;;;1.70;99.90;;;;;;5090070;28;20608;-74
2021/01/29 01:57:06;;;;;;;3.67;2.03;;;1.70;99.90;;;;;;5089997;28;20275;-74
2021/01/29 01:59:36;;;;;;;3.88;1.92;;;1.60;99.90;;;;;;5088809;28;20189;-74
2021/01/29 02:02:04;;;;;;;2.38;1.88;;;1.60;99.90;;;;;;5088457;28;20219;-74
2021/01/29 02:04:33;;;;;;;2.35;2.15;;;1.60;99.90;;;;;;5091020;28;20316;-74
2021/01/29 02:07:09;;;;;;;3.90;1.98;;;1.60;99.90;;;;;;5088946;28;20196;-74
2021/01/29 02:09:40;;;;;;;2.30;1.73;;;1.60;99.90;;;;;;5089153;28;20184;-75
2021/01/29 02:12:07;;;;;;;3.67;1.63;;;1.60;99.90;;;;;;5088070;28;20233;-75
2021/01/29 02:14:33;;;;;;;2.00;1.70;;;1.50;99.90;;;;;;5089535;28;20201;-75
2021/01/29 02:17:04;;;;;;;6.70;1.40;;;1.50;99.90;;;;;;5089758;28;20696;-75
2021/01/29 02:20:04;;;;;;;2.50;1.48;;;1.50;99.90;;;;;;5088894;28;20997;-75
2021/01/29 02:23:00;;;;;;;4.97;1.80;;;1.50;99.90;;;;;;5091385;28;20672;-75
2021/01/29 02:26:14;;;;;;;1.70;1.60;;;1.50;99.90;;;;;;5086998;28;20288;-75
2021/01/29 02:29:03;;;;;;;6.72;1.92;;;1.40;99.90;;;;;;5066137;28;20232;-75
2021/01/29 02:31:48;;;;;;;2.80;2.00;;;1.40;99.90;;;;;;5086626;28;20283;-76
2021/01/29 02:34:56;;;;;;;2.55;1.70;;;1.40;99.90;;;;;;5080965;28;20283;-75
2021/01/29 02:37:49;;;;;;;1.73;1.60;;;1.40;99.90;;;;;;5090043;28;20302;-75
2021/01/29 02:40:20;;;;;;;4.50;1.70;;;1.40;99.90;;;;;;5084881;28;20562;-75
2021/01/29 02:43:00;;;;;;;6.13;1.98;;;1.40;99.90;;;;;;5090210;28;20197;-75
2021/01/29 02:45:29;;;;;;;2.75;1.42;;;1.40;99.90;;;;;;5083879;28;20550;-75
2021/01/29 02:48:13;;;;;;;2.08;1.73;;;1.40;99.90;;;;;;5079165;28;20231;-75
2021/01/29 02:50:46;;;;;;;2.35;1.48;;;1.40;99.90;;;;;;5085846;28;20285;-75
2021/01/29 02:53:21;;;;;;;7.10;1.48;;;1.40;99.90;;;;;;5088534;28;20268;-75
2021/01/29 02:55:56;;;;;;;2.10;1.30;;;1.40;99.90;;;;;;5085388;28;20297;-75
2021/01/29 02:58:31;;;;;;;4.03;1.80;;;1.40;99.90;;;;;;5079838;28;20198;-76
2021/01/29 03:01:03;;;;;;;1.73;1.50;;;1.40;99.90;;;;;;5085171;28;20875;-75
2021/01/29 03:03:35;;;;;;;1.98;1.45;;;1.30;99.90;;;;;;5088460;28;20318;-75
2021/01/29 03:06:08;;;;;;;2.45;1.65;;;1.20;99.90;;;;;;5086514;28;20570;-75
2021/01/29 03:08:38;;;;;;;2.63;1.90;;;1.20;99.90;;;;;;5079037;28;21471;-75
2021/01/29 03:11:09;;;;;;;3.50;2.00;;;1.20;99.90;;;;;;5085374;28;20879;-75
2021/01/29 03:13:42;;;;;;;3.00;2.40;;;1.20;99.90;;;;;;5090639;28;20195;-75
2021/01/29 03:16:15;;;;;;;1.90;1.70;;;1.20;99.90;;;;;;5086743;28;20185;-75
2021/01/29 03:18:48;;;;;;;2.97;1.50;;;1.20;99.90;;;;;;5089436;28;20279;-76
2021/01/29 03:21:17;;;;;;;2.20;2.00;;;1.20;99.90;;;;;;5085379;28;20218;-75
2021/01/29 03:23:49;;;;;;;1.48;1.38;;;1.30;99.90;;;;;;5087471;28;20327;-75
2021/01/29 03:26:20;;;;;;;7.20;1.60;;;1.30;99.90;;;;;;5086255;28;20271;-74
2021/01/29 03:28:52;;;;;;;5.05;1.50;;;1.30;99.90;;;;;;5078223;28;20192;-74
2021/01/29 03:31:21;;;;;;;1.83;1.73;;;1.30;99.90;;;;;;5086075;28;20198;-75
2021/01/29 03:33:49;;;;;;;4.40;1.40;;;1.30;99.90;;;;;;5088928;28;21113;-75
2021/01/29 03:36:19;;;;;;;3.10;2.03;;;1.30;99.90;;;;;;5084814;28;20245;-75
2021/01/29 03:38:52;;;;;;;6.55;1.50;;;1.20;99.90;;;;;;5077663;28;20199;-75
2021/01/29 03:41:23;;;;;;;2.95;1.63;;;1.20;99.90;;;;;;5083382;28;20925;-75
2021/01/29 03:44:00;;;;;;;2.20;1.85;;;1.20;99.90;;;;;;5087834;28;20189;-74
2021/01/29 03:46:35;;;;;;;2.38;1.20;;;1.20;99.90;;;;;;5086887;28;20666;-74
2021/01/29 03:49:10;;;;;;;2.92;1.40;;;1.20;99.90;;;;;;5087939;28;20192;-74
2021/01/29 03:51:46;;;;;;;1.40;1.30;;;1.20;99.90;;;;;;5087108;28;20275;-74
2021/01/29 03:54:19;;;;;;;4.60;1.67;;;1.10;99.90;;;;;;5085887;28;20196;-74
2021/01/29 03:56:56;;;;;;;3.25;1.75;;;1.10;99.90;;;;;;5088123;28;20184;-74
2021/01/29 03:59:30;;;;;;;2.33;1.90;;;1.10;99.90;;;;;;5083566;28;20279;-74
2021/01/29 04:02:06;;;;;;;3.05;1.67;;;1.00;99.90;;;;;;5089750;28;20224;-74
2021/01/29 04:04:35;;;;;;;4.03;1.80;;;1.00;99.90;;;;;;5084593;28;20192;-75
2021/01/29 04:07:14;;;;;;;2.65;1.77;;;1.00;99.90;;;;;;5086836;28;20601;-75
2021/01/29 04:09:47;;;;;;;4.68;1.67;;;1.00;99.90;;;;;;5083872;28;20230;-75
2021/01/29 04:12:19;;;;;;;3.67;1.70;;;1.00;99.90;;;;;;5087165;28;20196;-75
2021/01/29 04:14:51;;;;;;;4.00;1.52;;;0.90;99.90;;;;;;5085332;28;20203;-76
2021/01/29 04:17:23;;;;;;;2.50;1.80;;;0.90;99.90;;;;;;5086656;28;20271;-75
2021/01/29 04:19:54;;;;;;;6.93;1.98;;;0.80;99.90;;;;;;5085220;28;20597;-75
2021/01/29 04:22:24;;;;;;;5.13;3.25;;;0.80;99.90;;;;;;5078256;28;20315;-75
2021/01/29 04:24:55;;;;;;;3.55;1.60;;;0.70;99.90;;;;;;5084592;28;20362;-75
2021/01/29 04:27:26;;;;;;;3.45;1.75;;;0.70;99.90;;;;;;5087256;28;20287;-75
2021/01/29 04:29:59;;;;;;;3.70;3.30;;;0.70;99.90;;;;;;5084599;28;20593;-74
2021/01/29 04:32:30;;;;;;;2.92;2.53;;;0.70;99.90;;;;;;5088108;28;20288;-75
2021/01/29 04:35:00;;;;;;;2.65;2.40;;;0.50;99.90;;;;;;5083472;28;20192;-75
2021/01/29 04:37:30;;;;;;;3.05;2.00;;;0.60;99.90;;;;;;5088392;28;20296;-74
2021/01/29 04:40:00;;;;;;;1.77;1.50;;;0.60;99.90;;;;;;5083893;28;20271;-75
2021/01/29 04:42:47;;;;;;;2.78;2.40;;;0.70;99.90;;;;;;5088855;28;20657;-74
2021/01/29 04:45:49;;;;;;;2.90;2.55;;;0.70;99.90;;;;;;5085099;28;20185;-75
2021/01/29 04:48:18;;;;;;;4.30;2.70;;;0.80;99.90;;;;;;5087218;28;20293;-74
2021/01/29 04:51:02;;;;;;;4.07;2.63;;;0.80;99.90;;;;;;5083835;28;20667;-74
2021/01/29 04:54:08;;;;;;;5.22;2.63;;;0.70;99.90;;;;;;5086512;28;20280;-75
2021/01/29 04:57:16;;;;;;;5.75;2.05;;;0.70;99.90;;;;;;5087992;28;20448;-75
2021/01/29 04:59:59;;;;;;;2.80;1.80;;;0.70;99.90;;;;;;5084702;28;20271;-75
2021/01/29 05:02:44;;;;;;;2.97;1.60;;;0.70;99.90;;;;;;5086178;28;20806;-75
2021/01/29 05:05:47;;;;;;;5.53;2.00;;;0.70;99.90;;;;;;5082055;28;20203;-74
2021/01/29 05:08:35;;;;;;;2.83;2.40;;;0.60;99.90;;;;;;5078116;28;20274;-74
2021/01/29 05:11:22;;;;;;;3.85;2.25;;;0.60;99.90;;;;;;5086334;28;20211;-74
2021/01/29 05:14:12;;;;;;;2.10;1.75;;;0.60;99.90;;;;;;5083619;28;20726;-74
2021/01/29 05:17:07;;;;;;;5.53;2.45;;;0.60;99.90;;;;;;5088506;28;20184;-74
2021/01/29 05:19:54;;;;;;;1.88;1.70;;;0.50;99.90;;;;;;5083501;28;20326;-74
2021/01/29 05:22:52;;;;;;;2.60;2.10;;;0.50;99.90;;;;;;5076853;28;20227;-75
2021/01/29 05:25:47;;;;;;;2.50;2.22;;;0.50;99.90;;;;;;5086264;28;20190;-75
2021/01/29 05:28:41;;;;;;;3.83;2.10;;;0.40;99.90;;;;;;5083888;28;20195;-75
2021/01/29 05:31:39;;;;;;;5.93;2.20;;;0.30;99.90;;;;;;5085042;28;20234;-83
2021/01/29 05:34:27;;;;;;;4.30;1.88;;;0.30;99.90;;;;;;5083827;28;20188;-76
2021/01/29 05:37:45;;;;;;;2.65;2.15;;;0.20;99.90;;;;;;5087180;28;20202;-75
2021/01/29 05:40:26;;;;;;;2.60;2.15;;;0.20;99.90;;;;;;5085937;28;20185;-76
2021/01/29 05:43:14;;;;;;;5.35;2.22;;;0.20;99.90;;;;;;5083969;28;20288;-75
2021/01/29 05:45:52;;;;;;;4.10;2.55;;;0.10;99.90;;;;;;5085819;28;20280;-75
2021/01/29 05:48:48;;;;;;;8.13;5.20;;;0.10;99.90;;;;;;5083100;28;20284;-75
2021/01/29 05:51:36;;;;;;;3.53;3.22;;;0.00;99.90;;;;;;5087449;28;20284;-75
2021/01/29 05:54:32;;;;;;;7.40;2.55;;;0.10;99.90;;;;;;5082742;28;20850;-73
2021/01/29 05:57:26;;;;;;;3.40;3.10;;;0.10;99.90;;;;;;5084562;28;20681;-73
2021/01/29 06:00:09;;;;;;;2.30;2.10;;;0.20;99.90;;;;;;5085599;28;20655;-74
2021/01/29 06:02:55;;;;;;;2.95;2.58;;;0.20;99.90;;;;;;5085204;28;20197;-74
2021/01/29 06:05:47;;;;;;;3.83;2.00;;;0.30;99.90;;;;;;5094033;28;20267;-74
2021/01/29 06:08:40;;;;;;;7.10;2.42;;;0.30;99.90;;;;;;5092645;28;20322;-74
2021/01/29 06:11:25;;;;;;;5.40;2.20;;;0.40;99.90;;;;;;5093139;28;20216;-74
2021/01/29 06:14:20;;;;;;;9.73;2.75;;;0.40;99.90;;;;;;5095414;28;20260;-74
2021/01/29 06:17:24;;;;;;;3.85;2.65;;;0.50;99.90;;;;;;5095521;28;20275;-74
2021/01/29 06:20:09;;;;;;;4.93;2.25;;;0.50;99.90;;;;;;5082030;28;20263;-76
2021/01/29 06:23:05;;;;;;;3.30;2.00;;;0.50;99.90;;;;;;5092148;28;20279;-75
2021/01/29 06:25:48;;;;;;;6.55;2.60;;;0.50;99.90;;;;;;5079245;28;20268;-75
2021/01/29 06:28:44;;;;;;;3.65;2.55;;;0.50;99.90;;;;;;5095007;28;20230;-74
2021/01/29 06:31:34;;;;;;;4.10;2.20;;;0.60;99.90;;;;;;5089652;28;20283;-74
2021/01/29 06:34:24;;;;;;;3.20;2.50;;;0.60;99.90;;;;;;5095144;28;20269;-74
2021/01/29 06:37:01;;;;;;;4.95;2.63;;;0.60;99.90;;;;;;5082661;28;20181;-73
2021/01/29 06:39:43;;;;;;;4.93;2.85;;;0.60;99.90;;;;;;5092678;28;20220;-73
2021/01/29 06:42:37;;;;;;;3.03;2.80;;;0.60;99.90;;;;;;5093776;28;20672;-73
2021/01/29 06:45:20;;;;;;;2.33;2.13;;;0.60;99.90;;;;;;5094037;28;20252;-73
2021/01/29 06:48:00;;;;;;;3.95;2.83;;;0.60;99.90;;;;;;5094599;28;20185;-73
2021/01/29 06:51:13;;;;;;;3.45;2.58;;;0.60;99.90;;;;;;5094866;28;20276;-74
2021/01/29 06:53:55;;;;;;;4.18;3.17;;;0.60;99.90;;;;;;5080350;28;20212;-73
2021/01/29 06:56:43;;;;;;;3.33;2.97;;;0.70;99.90;;;;;;5094745;28;20185;-73
2021/01/29 06:59:30;;;;;;;3.72;2.70;;;0.80;99.90;;;;;;5092583;28;20239;-73
2021/01/29 07:02:20;;;;;;;7.55;3.40;;;0.80;99.90;;;;;;5094479;28;20700;-73
2021/01/29 07:05:07;;;;;;;3.92;2.90;;;0.90;99.90;;;;;;5094543;28;20276;-73
2021/01/29 07:08:03;;;;;;;4.95;3.30;;;0.90;99.90;;;;;;5079016;28;20756;-73
2021/01/29 07:11:04;;;;;;;2.97;2.78;;;0.90;99.90;;;;;;5094186;28;20193;-73
2021/01/29 07:13:58;;;;;;;3.35;3.05;;;1.00;99.90;;;;;;5082132;28;20662;-73
2021/01/29 07:16:58;;;;;;;3.00;2.70;;;1.00;99.90;;;;;;5094435;28;20268;-74
2021/01/29 07:20:00;;;;;;;3.65;2.40;;;1.00;99.90;;;;;;5075196;28;20216;-73
2021/01/29 07:23:05;;;;;;;3.22;2.92;;;1.10;99.90;;;;;;5093721;28;20586;-74
2021/01/29 07:25:36;;;;;;;3.40;2.92;;;1.10;99.90;;;;;;5078064;28;20263;-74
2021/01/29 07:28:21;;;;;;;5.65;3.47;;;1.20;99.90;;;;;;5094118;28;20181;-74
2021/01/29 07:30:59;;;;;;;6.13;3.70;;;1.20;99.90;;;;;;5093936;28;20634;-73
2021/01/29 07:33:33;;;;;;;4.28;3.20;;;1.20;99.90;;;;;;5076816;28;20299;-74
2021/01/29 07:36:25;;;;;;;2.80;2.60;;;1.30;99.90;;;;;;5093920;28;20267;-73
2021/01/29 07:39:25;;;;;;;3.47;2.17;;;1.30;99.90;;;;;;5093801;28;20191;-74
2021/01/29 07:42:06;;;;;;;4.78;2.70;;;1.40;99.90;;;;;;5080659;28;20758;-74
2021/01/29 07:44:43;;;;;;;3.42;2.63;;;1.40;99.90;;;;;;5093581;28;20282;-74
2021/01/29 07:47:20;;;;;;;3.20;2.90;;;1.40;99.90;;;;;;5093804;28;20275;-74
2021/01/29 07:50:14;;;;;;;2.25;2.05;;;1.50;99.90;;;;;;5093536;28;20216;-74
2021/01/29 07:53:40;;;;;;;3.03;2.60;;;1.50;99.90;;;;;;5090850;28;20184;-74
2021/01/29 07:56:30;;;;;;;2.80;2.60;;;1.50;99.90;;;;;;5082625;28;20188;-75
2021/01/29 07:59:04;;;;;;;5.20;2.55;;;1.60;99.90;;;;;;5089702;28;20250;-75
2021/01/29 08:01:42;;;;;;;4.60;2.40;;;1.60;99.90;;;;;;5077493;28;20290;-75
2021/01/29 08:04:42;;;;;;;2.55;2.35;;;1.70;99.90;;;;;;5093568;28;20613;-75
2021/01/29 08:07:14;;;;;;;4.03;2.50;;;1.80;99.90;;;;;;5056602;28;20199;-75
2021/01/29 08:09:43;;;;;;;2.75;2.53;;;1.80;99.90;;;;;;5092163;28;20184;-75
2021/01/29 08:12:12;;;;;;;4.50;1.95;;;1.80;99.90;;;;;;5091690;28;20208;-75
2021/01/29 08:14:57;;;;;;;4.00;2.50;;;1.80;99.90;;;;;;5092874;28;20181;-75
2021/01/29 08:17:35;;;;;;;3.97;2.17;;;1.90;99.90;;;;;;5092810;28;21005;-75
2021/01/29 08:20:15;;;;;;;4.57;2.90;;;1.90;99.90;;;;;;5091219;28;20275;-75
2021/01/29 08:23:02;;;;;;;4.75;2.25;;;2.00;99.90;;;;;;5091001;28;20294;-76
2021/01/29 08:25:57;;;;;;;2.67;2.10;;;2.00;99.90;;;;;;5092154;28;20183;-75
2021/01/29 08:28:42;;;;;;;5.47;2.50;;;2.10;99.90;;;;;;5091496;28;20185;-75
2021/01/29 08:31:34;;;;;;;2.47;2.22;;;2.10;99.90;;;;;;5090919;28;20275;-75
2021/01/29 08:34:45;;;;;;;3.50;2.65;;;2.10;99.90;;;;;;5093251;28;20184;-75
2021/01/29 08:37:41;;;;;;;5.55;2.10;;;2.20;99.90;;;;;;5076922;28;20197;-75
2021/01/29 08:40:22;;;;;;;3.22;2.30;;;2.30;99.90;;;;;;5092853;28;20223;-77
2021/01/29 08:43:06;;;;;;;3.83;2.70;;;2.30;99.90;;;;;;5093079;28;20279;-76
2021/01/29 08:45:41;;;;;;;3.03;2.10;;;2.30;99.90;;;;;;5077374;28;20192;-81
2021/01/29 08:48:22;;;;;;;3.00;2.30;;;2.30;99.90;;;;;;5092871;28;20184;-81
2021/01/29 08:51:05;;;;;;;3.53;2.70;;;2.30;99.90;;;;;;5092955;28;20271;-80
2021/01/29 08:54:00;;;;;;;4.50;2.83;;;2.30;99.90;;;;;;5078120;28;20183;-78
2021/01/29 08:56:39;;;;;;;2.78;2.40;;;2.40;99.90;;;;;;5092191;28;20703;-78
2021/01/29 08:59:08;;;;;;;4.88;2.40;;;2.50;99.90;;;;;;5094236;28;20291;-77
2021/01/29 09:01:40;;;;;;;4.68;2.95;;;2.50;99.90;;;;;;5087958;28;20693;-77
2021/01/29 09:04:14;;;;;;;3.72;2.80;;;2.50;99.90;;;;;;5076399;28;20202;-78
2021/01/29 09:06:44;;;;;;;4.78;2.40;;;2.60;99.90;;;;;;5087274;28;20661;-77
2021/01/29 09:09:17;;;;;;;3.85;3.35;;;2.60;99.90;;;;;;5090376;28;20260;-78
2021/01/29 09:11:48;;;;;;;4.63;2.58;;;2.70;99.90;;;;;;5091693;28;20184;-78
2021/01/29 09:14:21;;;;;;;6.85;2.65;;;2.80;99.90;;;;;;5089849;28;20188;-78
2021/01/29 09:16:48;;;;;;;5.18;2.92;;;2.80;99.90;;;;;;5092342;28;20711;-77
2021/01/29 09:19:16;;;;;;;2.88;2.50;;;2.90;99.90;;;;;;5092626;28;20266;-78
2021/01/29 09:21:58;;;;;;;3.88;2.30;;;2.90;99.90;;;;;;5092471;28;20251;-77
2021/01/29 09:24:36;;;;;;;4.70;2.80;;;3.00;99.90;;;;;;5092915;28;20279;-77
2021/01/29 09:27:26;;;;;;;2.95;2.65;;;3.10;99.90;;;;;;5092620;28;20196;-77
2021/01/29 09:29:56;;;;;;;7.28;2.90;;;3.10;99.90;;;;;;5092884;28;20279;-78
2021/01/29 09:32:44;;;;;;;2.97;2.67;;;3.10;99.90;;;;;;5092583;28;20319;-78
2021/01/29 09:35:15;;;;;;;3.35;2.22;;;3.20;99.90;;;;;;5093018;28;20223;-77
2021/01/29 09:37:47;;;;;;;5.35;2.60;;;3.20;99.90;;;;;;5096575;28;20188;-77
2021/01/29 09:40:21;;;;;;;5.28;2.80;;;3.20;99.90;;;;;;5096889;28;20185;-79
2021/01/29 09:42:59;;;;;;;5.70;3.78;;;3.00;99.90;;;;;;5096485;28;20226;-77
2021/01/29 09:45:27;;;;;;;3.40;3.08;;;3.00;99.90;;;;;;5096679;28;20192;-77
2021/01/29 09:47:59;;;;;;;3.20;2.58;;;3.10;99.90;;;;;;5095863;28;20185;-77
2021/01/29 09:50:26;;;;;;;3.88;3.10;;;3.10;99.90;;;;;;5093425;28;20279;-76
2021/01/29 09:53:09;;;;;;;3.28;2.97;;;3.00;99.90;;;;;;5095795;28;20279;-77
2021/01/29 09:55:40;;;;;;;3.70;3.15;;;3.10;99.90;;;;;;5094918;28;20176;-77
2021/01/29 09:58:15;;;;;;;3.60;3.30;;;3.20;99.90;;;;;;5093831;28;20279;-77
2021/01/29 10:00:43;;;;;;;3.60;3.30;;;3.20;99.90;;;;;;5096145;28;20271;-77
2021/01/29 10:03:15;;;;;;;6.43;3.65;;;3.20;99.90;;;;;;5096328;28;20549;-78
2021/01/29 10:05:48;;;;;;;8.88;4.53;;;3.30;99.90;;;;;;5095884;28;20506;-77
2021/01/29 10:08:18;;;;;;;5.35;4.00;;;3.40;99.90;;;;;;5096180;28;20199;-77
2021/01/29 10:10:49;;;;;;;4.22;3.83;;;3.40;99.90;;;;;;5096052;28;20231;-77
2021/01/29 10:13:25;;;;;;;6.63;3.95;;;3.40;99.90;;;;;;5095853;28;20662;-77
2021/01/29 10:16:13;;;;;;;6.35;4.07;;;3.50;99.90;;;;;;5096090;28;20192;-77
2021/01/29 10:18:40;;;;;;;9.80;4.20;;;3.50;99.90;;;;;;5095897;28;20632;-77
2021/01/29 10:21:14;;;;;;;9.32;4.25;;;3.60;99.90;;;;;;5095848;28;20658;-77
2021/01/29 10:23:45;;;;;;;5.97;3.88;;;3.70;99.90;;;;;;5095270;28;20189;-77
2021/01/29 10:26:20;;;;;;;10.40;3.85;;;3.70;99.90;;;;;;5095483;28;20543;-77
2021/01/29 10:29:04;;;;;;;4.75;3.70;;;3.80;99.90;;;;;;5092615;28;20263;-77
2021/01/29 10:31:41;;;;;;;7.28;4.55;;;3.80;99.90;;;;;;5092860;28;20191;-77
2021/01/29 10:34:25;;;;;;;4.97;4.45;;;3.90;99.90;;;;;;5092582;28;20195;-77
2021/01/29 10:37:01;;;;;;;9.13;5.40;;;4.10;99.90;;;;;;5093707;28;20191;-77
2021/01/29 10:39:34;;;;;;;4.22;3.33;;;4.20;99.90;;;;;;5095701;28;20283;-78
2021/01/29 10:42:08;;;;;;;7.25;4.57;;;4.20;99.90;;;;;;5095746;28;20216;-79
2021/01/29 10:44:37;;;;;;;9.95;4.97;;;4.30;99.90;;;;;;5095408;28;20199;-79
2021/01/29 10:47:14;;;;;;;4.57;4.10;;;4.30;99.90;;;;;;5093631;28;20257;-79
2021/01/29 10:49:50;;;;;;;6.03;4.05;;;4.40;99.90;;;;;;5095421;28;20275;-79
2021/01/29 10:52:27;;;;;;;8.18;4.70;;;4.50;99.90;;;;;;5095261;28;20192;-79
2021/01/29 10:54:53;;;;;;;6.03;4.40;;;4.60;99.90;;;;;;5095088;28;20194;-79
2021/01/29 10:57:25;;;;;;;7.63;4.13;;;4.70;99.90;;;;;;5095241;28;20196;-78
2021/01/29 10:59:57;;;;;;;8.25;4.65;;;4.70;99.90;;;;;;5095098;28;20199;-78
2021/01/29 11:02:32;;;;;;;5.03;3.90;;;4.70;99.90;;;;;;5094996;28;20231;-77
2021/01/29 11:05:06;;;;;;;4.22;3.67;;;4.60;99.90;;;;;;5094711;28;20227;-77
2021/01/29 11:07:34;;;;;;;5.25;4.60;;;4.60;99.90;;;;;;5094798;28;20282;-77
2021/01/29 11:10:08;;;;;;;5.28;4.03;;;4.50;99.90;;;;;;5094945;28;20284;-77
2021/01/29 11:12:39;;;;;;;6.90;4.70;;;4.50;99.90;;;;;;5094613;28;20185;-77
2021/01/29 11:15:23;;;;;;;4.93;4.00;;;4.40;99.90;;;;;;5094476;28;20193;-77
2021/01/29 11:17:56;;;;;;;8.38;4.45;;;4.40;99.90;;;;;;5094582;28;20216;-77
2021/01/29 11:20:27;;;;;;;9.55;3.83;;;4.40;99.90;;;;;;5094874;28;20196;-77
2021/01/29 11:23:01;;;;;;;5.53;4.45;;;4.40;99.90;;;;;;5094500;28;20311;-77
2021/01/29 11:25:54;;;;;;;5.18;3.60;;;4.30;99.90;;;;;;5091688;28;20188;-84
2021/01/29 11:28:30;;;;;;;6.70;3.58;;;4.20;99.90;;;;;;5092963;28;20192;-78
2021/01/29 11:31:04;;;;;;;3.92;3.53;;;4.20;99.90;;;;;;5092209;28;20660;-78
2021/01/29 11:33:33;;;;;;;9.02;4.38;;;4.20;99.90;;;;;;5091272;28;20212;-78
2021/01/29 11:36:06;;;;;;;4.00;3.45;;;4.30;99.90;;;;;;5094086;28;20199;-78
2021/01/29 11:38:41;;;;;;;7.43;3.92;;;4.30;99.90;;;;;;5094194;28;20189;-78
2021/01/29 11:41:20;;;;;;;3.67;3.35;;;4.30;99.90;;;;;;5094355;28;20208;-78
2021/01/29 11:43:53;;;;;;;3.65;3.15;;;4.30;99.90;;;;;;5094229;28;20275;-78
2021/01/29 11:46:27;;;;;;;4.05;3.15;;;4.30;99.90;;;;;;5094310;28;20188;-78
2021/01/29 11:49:07;;;;;;;2.80;2.60;;;4.30;99.90;;;;;;5094031;28;20260;-78
2021/01/29 11:51:50;;;;;;;3.38;3.08;;;4.30;99.90;;;;;;5094439;28;20196;-78
2021/01/29 11:54:26;;;;;;;3.45;3.08;;;4.30;99.90;;;;;;5094147;28;20188;-78
2021/01/29 11:57:05;;;;;;;7.38;2.60;;;4.30;99.90;;;;;;5094142;28;20527;-78
2021/01/29 11:59:45;;;;;;;3.22;2.75;;;4.30;99.90;;;;;;5093455;28;20184;-78
2021/01/29 12:02:25;;;;;;;3.63;2.53;;;4.30;99.90;;;;;;5093915;28;20294;-78
2021/01/29 12:04:55;;;;;;;3.80;2.50;;;4.30;99.90;;;;;;5093723;28;20719;-78
2021/01/29 12:07:27;;;;;;;2.80;2.60;;;4.20;99.90;;;;;;5093911;28;20188;-78
2021/01/29 12:10:01;;;;;;;5.35;3.05;;;4.20;99.90;;;;;;5093757;28;20289;-78
2021/01/29 12:12:35;;;;;;;6.32;3.30;;;4.10;99.90;;;;;;5093854;28;20275;-78
2021/01/29 12:15:11;;;;;;;5.68;3.28;;;4.10;99.90;;;;;;5093776;28;20191;-77
2021/01/29 12:17:40;;;;;;;3.05;2.20;;;4.00;99.90;;;;;;5093616;28;20192;-77
2021/01/29 12:20:09;;;;;;;5.97;3.22;;;3.90;99.90;;;;;;5092546;28;20294;-77
2021/01/29 12:22:41;;;;;;;5.00;3.13;;;3.80;99.90;;;;;;5093407;28;20721;-77
2021/01/29 12:25:48;;;;;;;3.08;2.75;;;3.50;99.90;;;;;;5093833;28;20337;-77
2021/01/29 12:28:23;;;;;;;2.15;1.88;;;3.40;99.90;;;;;;5093620;28;20195;-77
2021/01/29 12:31:01;;;;;;;4.30;2.63;;;3.30;99.90;;;;;;5093569;28;20234;-77
2021/01/29 12:33:32;;;;;;;4.40;2.78;;;3.20;99.90;;;;;;5093165;28;20690;-78
2021/01/29 12:36:01;;;;;;;4.88;2.55;;;3.20;99.90;;;;;;5093294;28;20790;-77
2021/01/29 12:38:39;;;;;;;3.25;2.67;;;3.20;99.90;;;;;;5093161;28;20279;-77
2021/01/29 12:41:14;;;;;;;3.28;2.00;;;3.20;99.90;;;;;;5093128;28;20196;-78
2021/01/29 12:44:02;;;;;;;3.53;2.95;;;3.20;99.90;;;;;;5093417;28;20219;-77
2021/01/29 12:46:32;;;;;;;2.60;2.40;;;3.20;99.90;;;;;;5092168;28;20592;-77
2021/01/29 12:49:05;;;;;;;4.03;3.30;;;3.20;99.90;;;;;;5091546;28;20280;-77
2021/01/29 12:51:36;;;;;;;2.28;2.08;;;3.30;99.90;;;;;;5093106;28;20257;-77
2021/01/29 12:54:12;;;;;;;3.33;2.97;;;3.20;99.90;;;;;;5093253;28;20279;-77
2021/01/29 12:57:04;;;;;;;2.67;2.35;;;3.20;99.90;;;;;;5093373;28;20283;-77
2021/01/29 12:59:36;;;;;;;4.28;2.92;;;3.40;99.90;;;;;;5090014;28;20227;-77
2021/01/29 13:02:13;;;;;;;4.65;3.85;;;3.50;99.90;;;;;;5092965;28;20306;-77
2021/01/29 13:04:45;;;;;;;4.13;2.70;;;3.50;99.90;;;;;;5093246;28;20282;-77
2021/01/29 13:07:16;;;;;;;4.47;3.00;;;3.60;99.90;;;;;;5093304;28;20197;-78
2021/01/29 13:10:06;;;;;;;6.68;2.85;;;3.60;99.90;;;;;;5092510;28;20221;-79
2021/01/29 13:12:47;;;;;;;6.90;3.50;;;3.60;99.90;;;;;;5090775;28;20188;-77
2021/01/29 13:15:31;;;;;;;4.70;3.22;;;3.50;99.90;;;;;;5092496;28;20744;-78
2021/01/29 13:18:03;;;;;;;3.30;2.90;;;3.50;99.90;;;;;;5092868;28;20552;-77
2021/01/29 13:20:34;;;;;;;3.58;2.90;;;3.60;99.90;;;;;;5092728;28;20615;-78
2021/01/29 13:23:16;;;;;;;4.18;3.15;;;3.50;99.90;;;;;;5092365;28;20501;-78
2021/01/29 13:25:55;;;;;;;4.60;3.00;;;3.50;99.90;;;;;;5092880;28;20192;-78
2021/01/29 13:28:21;;;;;;;6.13;3.00;;;3.60;99.90;;;;;;5092671;28;20555;-78
2021/01/29 13:30:47;;;;;;;5.60;3.78;;;3.60;99.90;;;;;;5092698;28;20216;-78
2021/01/29 13:33:17;;;;;;;5.10;3.67;;;3.60;99.90;;;;;;5092321;28;20230;-78
2021/01/29 13:35:47;;;;;;;8.30;3.53;;;3.60;99.90;;;;;;5092454;28;20196;-78
2021/01/29 13:38:23;;;;;;;9.52;3.95;;;3.50;99.90;;;;;;5093082;28;20555;-78
2021/01/29 13:40:50;;;;;;;4.43;3.63;;;3.50;99.90;;;;;;5092662;28;20220;-78
2021/01/29 13:43:25;;;;;;;5.90;4.40;;;3.50;99.90;;;;;;5092390;28;20315;-78
2021/01/29 13:45:55;;;;;;;7.95;3.78;;;3.60;99.90;;;;;;5092419;28;20299;-78
2021/01/29 13:48:23;;;;;;;4.00;3.13;;;3.50;99.90;;;;;;5092560;28;20203;-78
2021/01/29 13:50:53;;;;;;;3.45;3.15;;;3.50;99.90;;;;;;5092441;28;20223;-78
2021/01/29 13:53:38;;;;;;;2.97;2.65;;;3.40;99.90;;;;;;5092321;28;20268;-78